Antwerp, Ohio
Current Conditions -  °F | °C
As of 2:55 AM on Thursday 27 Nov 2014 (Local Time) from KGWB Reporting Station
Overcast Overcast  
Wind Chill: 23°   Ceiling: 3100
Heat Index: 30°   Visibility: 10mi
Dew Point: 23°   Wind: 7mph
Humidity: 75%   Direction: 320°NW
Pressure: 30.13"   Gusts: NA
Location:  41.18°N, 84.74°W
Report Text: KGWB 270755Z AUTO 32006KT 10SM OVC031 M01/M05 A3013 RMK AO2
Loading
Personal Weather Stations






























Interactive Weather Map New forecast layout! Learn more

10-Day Weather Forecast

Advertisements
Track Severe Weather on mobile